createdAt,value
2022-12-25T00:01:09.066Z,91.65
2022-12-25T00:03:47.389Z,91.78
2022-12-25T00:06:15.573Z,91.61
2022-12-25T00:08:43.908Z,91.50
2022-12-25T00:11:18.157Z,91.47
2022-12-25T00:13:47.561Z,91.62
2022-12-25T00:16:21.387Z,91.71
2022-12-25T00:18:51.366Z,91.64
2022-12-25T00:21:21.541Z,91.64
2022-12-25T00:23:55.072Z,91.72
2022-12-25T00:26:24.100Z,91.72
2022-12-25T00:28:57.610Z,91.63
2022-12-25T00:31:27.299Z,91.65
2022-12-25T00:33:55.555Z,91.64
2022-12-25T00:36:24.039Z,91.51
2022-12-25T00:38:52.325Z,91.61
2022-12-25T00:41:41.467Z,91.55
2022-12-25T00:44:12.923Z,91.58
2022-12-25T00:46:42.397Z,91.58
2022-12-25T00:49:11.749Z,91.46
2022-12-25T00:51:40.357Z,91.46
2022-12-25T00:54:08.664Z,91.51
2022-12-25T00:56:36.889Z,91.52
2022-12-25T00:59:05.137Z,91.70
2022-12-25T01:01:33.944Z,91.68
2022-12-25T01:04:02.238Z,91.80
2022-12-25T01:06:30.525Z,91.86
2022-12-25T01:09:17.533Z,91.96
2022-12-25T01:11:46.166Z,92.13
2022-12-25T01:14:14.489Z,92.27
2022-12-25T01:16:42.791Z,92.39
2022-12-25T01:19:11.195Z,92.39
2022-12-25T01:21:39.936Z,92.37
2022-12-25T01:24:08.387Z,92.47
2022-12-25T01:26:36.863Z,92.84
2022-12-25T01:29:05.016Z,93.00
2022-12-25T01:31:33.170Z,93.09
2022-12-25T01:34:01.190Z,93.25
2022-12-25T01:36:29.410Z,93.24
2022-12-25T01:38:57.505Z,93.02
2022-12-25T01:41:25.758Z,92.94
2022-12-25T01:44:05.248Z,93.02
2022-12-25T01:46:34.591Z,92.83
2022-12-25T01:49:16.153Z,92.77
2022-12-25T01:51:50.425Z,92.88
2022-12-25T01:54:25.300Z,92.70
2022-12-25T01:56:58.150Z,92.76
2022-12-25T01:59:27.564Z,92.72
2022-12-25T02:01:56.728Z,92.67
2022-12-25T02:04:40.633Z,92.58
2022-12-25T02:07:14.160Z,92.70
2022-12-25T02:09:42.951Z,92.66
2022-12-25T02:12:32.857Z,92.51
2022-12-25T02:15:13.960Z,92.43
2022-12-25T02:18:03.320Z,92.30
2022-12-25T02:21:09.211Z,92.13
2022-12-25T02:24:08.640Z,92.12
2022-12-25T02:26:49.189Z,92.14
2022-12-25T02:29:46.637Z,92.23
2022-12-25T02:32:32.847Z,92.50
2022-12-25T02:35:10.037Z,92.76
2022-12-25T02:37:57.481Z,92.82
2022-12-25T02:40:31.651Z,92.78
2022-12-25T02:43:22.798Z,92.88
2022-12-25T02:46:26.586Z,92.90
2022-12-25T02:49:21.370Z,92.72
2022-12-25T02:52:17.788Z,92.65
2022-12-25T02:55:12.461Z,92.68
2022-12-25T02:58:06.533Z,92.96
2022-12-25T03:00:58.808Z,93.01
2022-12-25T03:03:49.435Z,92.92
2022-12-25T03:06:38.528Z,92.95
2022-12-25T03:09:28.300Z,93.08
2022-12-25T03:12:06.254Z,93.15
2022-12-25T03:15:06.619Z,93.22
2022-12-25T03:17:35.815Z,93.26
2022-12-25T03:20:24.735Z,93.28
2022-12-25T03:23:13.027Z,93.30
2022-12-25T03:26:16.825Z,93.84
2022-12-25T03:28:44.969Z,93.95
2022-12-25T03:31:17.426Z,94.01
2022-12-25T03:34:22.902Z,94.20
2022-12-25T03:37:27.319Z,94.52
2022-12-25T03:40:26.011Z,94.69
2022-12-25T03:43:17.208Z,94.62
2022-12-25T03:46:10.417Z,94.80
2022-12-25T03:49:01.340Z,94.90
2022-12-25T03:51:53.623Z,94.69
2022-12-25T03:54:44.388Z,94.46
2022-12-25T03:57:32.735Z,94.48
2022-12-25T04:00:19.289Z,94.63
2022-12-25T04:03:05.959Z,94.65
2022-12-25T04:05:52.774Z,94.74
2022-12-25T04:08:39.143Z,94.82
2022-12-25T04:11:25.797Z,94.89
2022-12-25T04:14:12.521Z,94.82
2022-12-25T04:16:59.177Z,94.79
2022-12-25T04:19:45.761Z,94.87
2022-12-25T04:22:33.047Z,95.11
2022-12-25T04:25:19.701Z,95.15
2022-12-25T04:28:06.285Z,95.02
2022-12-25T04:30:52.861Z,95.17
2022-12-25T04:33:39.530Z,95.77
2022-12-25T04:36:13.966Z,95.90
2022-12-25T04:38:42.629Z,96.24
2022-12-25T04:41:12.845Z,96.58
2022-12-25T04:43:41.000Z,96.62
2022-12-25T04:46:09.030Z,96.64
2022-12-25T04:48:37.400Z,96.70
2022-12-25T04:51:17.910Z,96.63
2022-12-25T04:53:47.165Z,96.57
2022-12-25T04:56:16.394Z,96.56
2022-12-25T04:58:45.151Z,96.47
2022-12-25T05:01:13.558Z,96.54
2022-12-25T05:03:41.935Z,96.47
2022-12-25T05:06:10.433Z,96.36
2022-12-25T05:08:38.482Z,96.31
2022-12-25T05:11:12.091Z,96.62
2022-12-25T05:13:41.339Z,97.31
2022-12-25T05:16:15.510Z,97.50
2022-12-25T05:18:44.223Z,97.31
2022-12-25T05:21:12.970Z,97.34
2022-12-25T05:23:48.624Z,97.21
2022-12-25T05:26:20.182Z,97.26
2022-12-25T05:28:48.853Z,97.15
2022-12-25T05:31:17.801Z,97.38
2022-12-25T05:33:45.981Z,97.45
2022-12-25T05:36:14.176Z,97.63
2022-12-25T05:38:42.258Z,97.88
2022-12-25T05:41:10.404Z,97.73
2022-12-25T05:43:38.453Z,97.46
2022-12-25T05:46:08.894Z,97.28
2022-12-25T05:48:38.261Z,97.17
2022-12-25T05:51:08.725Z,97.07
2022-12-25T05:53:37.242Z,96.90
2022-12-25T05:56:07.220Z,96.74
2022-12-25T05:58:37.416Z,96.57
2022-12-25T06:01:16.495Z,96.45
2022-12-25T06:03:44.684Z,96.33
2022-12-25T06:06:13.229Z,96.29
2022-12-25T06:08:41.373Z,96.47
2022-12-25T06:11:10.627Z,96.55
2022-12-25T06:13:38.666Z,96.84
2022-12-25T06:16:09.048Z,97.03
2022-12-25T06:18:39.368Z,97.74
2022-12-25T06:21:12.597Z,98.32
2022-12-25T06:23:41.759Z,98.19
2022-12-25T06:26:14.752Z,98.40
2022-12-25T06:28:43.155Z,98.33
2022-12-25T06:31:17.780Z,98.20
2022-12-25T06:33:46.490Z,97.91
2022-12-25T06:36:16.541Z,97.57
2022-12-25T06:38:45.266Z,97.15
2022-12-25T06:41:22.499Z,97.03
2022-12-25T06:43:56.686Z,96.88
2022-12-25T06:46:26.763Z,96.57
2022-12-25T06:48:55.428Z,96.37
2022-12-25T06:51:26.967Z,96.06
2022-12-25T06:53:55.795Z,95.34
2022-12-25T06:56:28.707Z,95.22
2022-12-25T06:59:01.857Z,94.97
2022-12-25T07:01:38.202Z,94.92
2022-12-25T07:04:11.693Z,94.28
2022-12-25T07:06:40.009Z,93.52
2022-12-25T07:09:08.059Z,93.32
2022-12-25T07:11:36.270Z,93.57
2022-12-25T07:14:04.315Z,93.30
2022-12-25T07:16:32.600Z,92.50
2022-12-25T07:19:01.510Z,92.70
2022-12-25T07:21:29.665Z,92.44
2022-12-25T07:23:57.766Z,92.12
2022-12-25T07:26:25.856Z,92.15
2022-12-25T07:28:56.126Z,92.03
2022-12-25T07:31:24.332Z,92.32
2022-12-25T07:33:55.475Z,92.50
2022-12-25T07:36:23.531Z,92.44
2022-12-25T07:38:51.621Z,92.62
2022-12-25T07:41:19.739Z,92.63
2022-12-25T07:43:51.879Z,92.63
2022-12-25T07:46:21.503Z,92.44
2022-12-25T07:48:50.189Z,92.52
2022-12-25T07:51:18.550Z,92.90
2022-12-25T07:53:47.111Z,93.02
2022-12-25T07:56:17.914Z,92.78
2022-12-25T07:58:47.269Z,92.21
2022-12-25T08:01:22.596Z,90.33
2022-12-25T08:03:53.111Z,89.94
2022-12-25T08:06:23.091Z,88.65
2022-12-25T08:08:51.152Z,88.17
2022-12-25T08:11:19.299Z,85.34
2022-12-25T08:13:47.741Z,83.24
2022-12-25T08:16:16.271Z,82.92
2022-12-25T08:18:44.451Z,83.47
2022-12-25T08:21:14.809Z,81.81
2022-12-25T08:23:45.319Z,82.05
2022-12-25T08:26:17.749Z,82.53
2022-12-25T08:28:46.509Z,83.37
2022-12-25T08:31:19.601Z,83.22
2022-12-25T08:33:49.401Z,83.89
2022-12-25T08:36:18.847Z,83.63
2022-12-25T08:38:47.926Z,82.00
2022-12-25T08:41:17.156Z,82.48
2022-12-25T08:43:46.373Z,83.40
2022-12-25T08:46:14.831Z,83.27
2022-12-25T08:48:44.959Z,83.26
2022-12-25T08:51:16.501Z,83.26
2022-12-25T08:53:46.216Z,82.44
2022-12-25T08:56:15.364Z,82.62
2022-12-25T08:58:44.222Z,82.56
2022-12-25T09:01:13.346Z,82.93
2022-12-25T09:03:43.108Z,83.50
2022-12-25T09:06:14.156Z,82.40
2022-12-25T09:08:48.759Z,80.52
2022-12-25T09:11:19.801Z,79.44
2022-12-25T09:13:49.072Z,79.94
2022-12-25T09:16:20.480Z,79.76
2022-12-25T09:18:49.617Z,79.62
2022-12-25T09:21:19.023Z,77.42
2022-12-25T09:23:47.248Z,77.80
2022-12-25T09:26:18.132Z,78.00
2022-12-25T09:28:51.239Z,77.63
2022-12-25T09:31:22.786Z,77.65
2022-12-25T09:33:51.795Z,77.99
2022-12-25T09:36:23.402Z,77.11
2022-12-25T09:38:52.976Z,77.71
2022-12-25T09:41:34.135Z,77.43
2022-12-25T09:44:13.612Z,77.60
2022-12-25T09:47:02.030Z,78.48
2022-12-25T09:49:45.176Z,76.51
2022-12-25T09:52:19.577Z,77.04
2022-12-25T09:54:57.785Z,77.67
2022-12-25T09:57:26.570Z,77.33
2022-12-25T09:59:56.069Z,76.40
2022-12-25T10:02:46.223Z,76.77
2022-12-25T10:05:36.237Z,74.87
2022-12-25T10:08:25.225Z,74.25
2022-12-25T10:11:13.990Z,74.21
2022-12-25T10:13:48.822Z,74.10
2022-12-25T10:16:49.443Z,72.37
2022-12-25T10:19:25.872Z,72.46
2022-12-25T10:22:00.898Z,72.57
2022-12-25T10:24:36.100Z,72.40
2022-12-25T10:27:13.906Z,69.29
2022-12-25T10:29:46.502Z,67.45
2022-12-25T10:32:14.709Z,66.85
2022-12-25T10:34:43.794Z,67.91
2022-12-25T10:37:12.860Z,62.16
2022-12-25T10:39:46.682Z,60.55
2022-12-25T10:42:24.433Z,63.15
2022-12-25T10:45:01.416Z,62.18
2022-12-25T10:47:33.191Z,58.98
2022-12-25T10:50:18.612Z,58.04
2022-12-25T10:52:55.986Z,58.96
2022-12-25T10:55:28.844Z,56.08
2022-12-25T10:57:58.140Z,52.35
2022-12-25T11:00:28.762Z,50.28
2022-12-25T11:02:58.484Z,52.37
2022-12-25T11:05:31.324Z,53.43
2022-12-25T11:08:00.702Z,53.40
2022-12-25T11:10:38.217Z,50.27
2022-12-25T11:13:17.618Z,50.62
2022-12-25T11:15:49.574Z,48.69
2022-12-25T11:18:22.835Z,47.60
2022-12-25T11:21:02.641Z,46.93
2022-12-25T11:23:33.189Z,47.27
2022-12-25T11:26:07.719Z,46.98
2022-12-25T11:28:38.641Z,47.35
2022-12-25T11:31:36.601Z,48.72
2022-12-25T11:34:14.768Z,48.70
2022-12-25T11:36:49.504Z,48.26
2022-12-25T11:39:32.932Z,47.21
2022-12-25T11:42:40.095Z,48.17
2022-12-25T11:45:16.926Z,49.99
2022-12-25T11:47:46.482Z,49.22
2022-12-25T11:50:23.688Z,50.01
2022-12-25T11:52:53.468Z,48.61
2022-12-25T11:55:26.843Z,49.35
2022-12-25T11:58:03.250Z,48.94
2022-12-25T12:00:35.729Z,47.23
2022-12-25T12:03:14.507Z,46.60
2022-12-25T12:06:16.076Z,47.58
2022-12-25T12:08:52.320Z,47.47
2022-12-25T12:11:39.725Z,47.55
2022-12-25T12:14:24.790Z,46.98
2022-12-25T12:16:54.646Z,48.19
2022-12-25T12:19:30.657Z,47.63
2022-12-25T12:22:01.626Z,51.96
2022-12-25T12:24:39.240Z,55.46
2022-12-25T12:27:36.430Z,56.95
2022-12-25T12:30:05.851Z,57.96
2022-12-25T12:32:40.933Z,59.15
2022-12-25T12:35:23.640Z,60.35
2022-12-25T12:38:00.677Z,61.42
2022-12-25T12:40:36.777Z,62.78
2022-12-25T12:43:07.467Z,63.05
2022-12-25T12:45:37.889Z,63.45
2022-12-25T12:48:17.021Z,63.82
2022-12-25T12:50:45.307Z,64.44
2022-12-25T12:53:29.544Z,65.01
2022-12-25T12:56:18.804Z,65.13
2022-12-25T12:58:55.123Z,65.61
2022-12-25T13:01:40.550Z,66.01
2022-12-25T13:04:18.104Z,66.56
2022-12-25T13:07:19.192Z,66.98
2022-12-25T13:10:06.159Z,67.67
2022-12-25T13:12:34.373Z,68.11
2022-12-25T13:15:02.682Z,68.54
2022-12-25T13:17:31.008Z,68.98
2022-12-25T13:20:01.093Z,69.32
2022-12-25T13:22:34.752Z,69.98
2022-12-25T13:25:09.004Z,70.28
2022-12-25T13:27:37.217Z,70.72
2022-12-25T13:30:19.179Z,70.93
2022-12-25T13:32:49.313Z,71.47
2022-12-25T13:35:19.342Z,71.64
2022-12-25T13:37:48.597Z,71.89
2022-12-25T13:40:26.221Z,72.35
2022-12-25T13:42:59.712Z,72.99
2022-12-25T13:45:30.701Z,73.45
2022-12-25T13:48:15.119Z,73.54
2022-12-25T13:50:48.679Z,73.94
2022-12-25T13:53:18.183Z,74.30
2022-12-25T13:55:52.608Z,74.87
2022-12-25T13:58:33.686Z,74.85
2022-12-25T14:01:03.357Z,75.09
2022-12-25T14:03:46.268Z,75.61
2022-12-25T14:06:29.713Z,76.17
2022-12-25T14:08:59.726Z,76.19
2022-12-25T14:11:31.381Z,76.06
2022-12-25T14:14:03.347Z,76.13
2022-12-25T14:16:31.742Z,76.46
2022-12-25T14:19:03.651Z,76.92
2022-12-25T14:21:35.061Z,77.41
2022-12-25T14:24:03.362Z,77.13
2022-12-25T14:26:33.698Z,77.31
2022-12-25T14:29:04.991Z,77.51
2022-12-25T14:31:34.487Z,77.81
2022-12-25T14:34:07.476Z,78.09
2022-12-25T14:36:35.678Z,78.21
2022-12-25T14:39:06.947Z,78.52
2022-12-25T14:41:42.044Z,78.77
2022-12-25T14:44:34.589Z,79.15
2022-12-25T14:47:14.987Z,79.68
2022-12-25T14:49:43.406Z,80.29
2022-12-25T14:52:26.135Z,80.96
2022-12-25T14:55:01.352Z,81.27
2022-12-25T14:57:38.323Z,81.33
2022-12-25T15:00:20.452Z,81.22
2022-12-25T15:02:50.156Z,81.48
2022-12-25T15:05:27.523Z,81.78
2022-12-25T15:08:22.723Z,81.74
2022-12-25T15:11:01.038Z,81.62
2022-12-25T15:13:31.500Z,81.85
2022-12-25T15:16:06.374Z,81.85
2022-12-25T15:18:41.923Z,82.28
2022-12-25T15:21:30.772Z,82.83
2022-12-25T15:24:00.221Z,83.47
2022-12-25T15:26:30.212Z,85.03
2022-12-25T15:28:58.530Z,86.60
2022-12-25T15:31:29.416Z,86.98
2022-12-25T15:34:07.454Z,87.46
2022-12-25T15:36:35.577Z,87.88
2022-12-25T15:39:03.671Z,88.08
2022-12-25T15:41:54.232Z,87.97
2022-12-25T15:44:23.217Z,88.69
2022-12-25T15:46:51.880Z,88.72
2022-12-25T15:49:20.140Z,88.44
2022-12-25T15:51:48.390Z,88.30
2022-12-25T15:54:16.580Z,88.01
2022-12-25T15:56:50.978Z,87.75
2022-12-25T15:59:21.203Z,87.73
2022-12-25T16:01:52.606Z,87.55
2022-12-25T16:04:21.943Z,87.79
2022-12-25T16:06:50.999Z,87.95
2022-12-25T16:09:22.615Z,88.06
2022-12-25T16:11:51.014Z,87.93
2022-12-25T16:14:19.745Z,87.92
2022-12-25T16:16:47.852Z,87.78
2022-12-25T16:19:15.951Z,87.70
2022-12-25T16:21:46.380Z,87.60
2022-12-25T16:24:15.113Z,87.71
2022-12-25T16:26:44.065Z,87.65
2022-12-25T16:29:12.172Z,87.88
2022-12-25T16:31:41.308Z,88.23
2022-12-25T16:34:10.045Z,88.45
2022-12-25T16:36:39.238Z,88.53
2022-12-25T16:39:08.264Z,89.12
2022-12-25T16:41:36.269Z,89.30
2022-12-25T16:44:10.238Z,89.25
2022-12-25T16:46:40.019Z,89.80
2022-12-25T16:49:08.797Z,90.14
2022-12-25T16:51:36.893Z,90.48
2022-12-25T16:54:05.066Z,90.91
2022-12-25T16:56:33.231Z,91.12
2022-12-25T16:59:03.036Z,90.97
2022-12-25T17:01:31.386Z,90.75
2022-12-25T17:04:02.956Z,90.84
2022-12-25T17:06:32.220Z,90.80
2022-12-25T17:09:02.367Z,90.78
2022-12-25T17:11:31.335Z,90.83
2022-12-25T17:14:02.796Z,90.86
2022-12-25T17:16:34.069Z,90.83
2022-12-25T17:19:05.205Z,90.83
2022-12-25T17:21:34.354Z,90.82
2022-12-25T17:24:04.142Z,90.79
2022-12-25T17:26:33.230Z,91.01
2022-12-25T17:29:01.465Z,91.11
2022-12-25T17:31:30.032Z,91.10
2022-12-25T17:34:00.542Z,91.36
2022-12-25T17:36:29.292Z,91.23
2022-12-25T17:39:00.864Z,91.37
2022-12-25T17:41:29.200Z,91.36
2022-12-25T17:43:57.296Z,91.28
2022-12-25T17:46:28.435Z,91.10
2022-12-25T17:48:58.776Z,91.24
2022-12-25T17:51:28.450Z,91.41
2022-12-25T17:54:03.201Z,91.44
2022-12-25T17:56:32.548Z,91.68
2022-12-25T17:59:08.229Z,91.71
2022-12-25T18:01:38.587Z,91.65
2022-12-25T18:04:06.981Z,91.60
2022-12-25T18:06:36.944Z,91.54
2022-12-25T18:09:06.443Z,91.53
2022-12-25T18:11:42.009Z,91.67
2022-12-25T18:14:14.175Z,92.05
2022-12-25T18:16:45.035Z,92.40
2022-12-25T18:19:18.449Z,92.58
2022-12-25T18:21:46.617Z,92.79
2022-12-25T18:24:14.866Z,92.92
2022-12-25T18:26:43.121Z,93.05
2022-12-25T18:29:11.661Z,93.00
2022-12-25T18:31:39.814Z,92.94
2022-12-25T18:34:08.072Z,93.04
2022-12-25T18:36:37.013Z,93.21
2022-12-25T18:39:05.306Z,93.25
2022-12-25T18:41:53.511Z,93.24
2022-12-25T18:44:21.652Z,93.14
2022-12-25T18:46:49.691Z,92.93
2022-12-25T18:49:17.804Z,92.87
2022-12-25T18:51:45.930Z,92.80
2022-12-25T18:54:14.193Z,92.78
2022-12-25T18:56:42.370Z,92.73
2022-12-25T18:59:12.327Z,92.76
2022-12-25T19:01:40.858Z,92.78
2022-12-25T19:04:12.710Z,92.81
2022-12-25T19:06:40.815Z,92.78
2022-12-25T19:09:12.259Z,92.82
2022-12-25T19:11:46.611Z,92.96
2022-12-25T19:14:16.629Z,92.95
2022-12-25T19:16:45.091Z,93.16
2022-12-25T19:19:14.784Z,93.12
2022-12-25T19:21:42.814Z,93.08
2022-12-25T19:24:10.915Z,93.11
2022-12-25T19:26:39.043Z,93.01
2022-12-25T19:29:07.203Z,92.97
2022-12-25T19:31:35.502Z,93.04
2022-12-25T19:34:04.258Z,93.06
2022-12-25T19:36:32.537Z,93.03
2022-12-25T19:39:01.030Z,93.08
2022-12-25T19:41:29.276Z,93.11
2022-12-25T19:43:57.337Z,93.23
2022-12-25T19:46:32.047Z,93.23
2022-12-25T19:49:07.880Z,93.30
2022-12-25T19:51:40.095Z,93.58
2022-12-25T19:54:11.220Z,93.66
2022-12-25T19:56:39.664Z,93.47
2022-12-25T19:59:08.424Z,93.36
2022-12-25T20:01:36.675Z,93.30
2022-12-25T20:04:08.111Z,93.37
2022-12-25T20:06:38.951Z,93.42
2022-12-25T20:09:10.934Z,93.50
2022-12-25T20:11:40.101Z,93.58
2022-12-25T20:14:08.619Z,93.55
2022-12-25T20:16:38.160Z,93.64
2022-12-25T20:19:07.292Z,93.64
2022-12-25T20:21:35.339Z,93.66
2022-12-25T20:24:03.631Z,93.67
2022-12-25T20:26:32.306Z,93.72
2022-12-25T20:29:00.396Z,93.88
2022-12-25T20:31:31.299Z,93.95
2022-12-25T20:34:04.969Z,93.89
2022-12-25T20:36:37.253Z,93.92
2022-12-25T20:39:10.152Z,93.92
2022-12-25T20:41:40.568Z,93.89
2022-12-25T20:44:10.510Z,93.71
2022-12-25T20:46:39.002Z,93.76
2022-12-25T20:49:07.429Z,93.73
2022-12-25T20:51:35.759Z,93.82
2022-12-25T20:54:12.797Z,93.90
2022-12-25T20:56:40.952Z,94.25
2022-12-25T20:59:09.459Z,94.83
2022-12-25T21:01:37.681Z,95.02
2022-12-25T21:04:05.961Z,95.51
2022-12-25T21:06:34.113Z,95.48
2022-12-25T21:09:02.146Z,95.51
2022-12-25T21:11:31.437Z,95.50
2022-12-25T21:13:59.637Z,95.45
2022-12-25T21:16:28.590Z,95.37
2022-12-25T21:18:56.909Z,95.40
2022-12-25T21:21:25.240Z,95.38
2022-12-25T21:23:57.094Z,95.19
2022-12-25T21:26:28.165Z,95.10
2022-12-25T21:29:00.334Z,94.91
2022-12-25T21:31:30.238Z,94.86
2022-12-25T21:33:58.373Z,94.93
2022-12-25T21:36:33.816Z,94.97
2022-12-25T21:39:05.662Z,95.08
2022-12-25T21:41:36.679Z,95.29
2022-12-25T21:44:05.575Z,95.28
2022-12-25T21:46:34.307Z,95.30
2022-12-25T21:49:02.559Z,95.33
2022-12-25T21:51:52.033Z,95.42
2022-12-25T21:54:22.379Z,95.54
2022-12-25T21:56:50.695Z,95.61
2022-12-25T21:59:21.447Z,95.55
2022-12-25T22:01:51.908Z,95.51
2022-12-25T22:04:22.888Z,95.45
2022-12-25T22:07:09.649Z,95.38
2022-12-25T22:09:37.910Z,95.34
2022-12-25T22:12:30.246Z,95.46
2022-12-25T22:15:06.544Z,95.40
2022-12-25T22:17:56.890Z,95.29
2022-12-25T22:20:30.946Z,95.04
2022-12-25T22:22:59.025Z,94.88
2022-12-25T22:25:27.143Z,94.97
2022-12-25T22:27:55.545Z,94.74
2022-12-25T22:30:26.900Z,94.39
2022-12-25T22:32:55.498Z,94.34
2022-12-25T22:35:24.279Z,94.50
2022-12-25T22:37:54.194Z,94.48
2022-12-25T22:40:22.431Z,94.46
2022-12-25T22:42:55.525Z,94.26
2022-12-25T22:45:24.460Z,94.23
2022-12-25T22:47:52.586Z,94.27
2022-12-25T22:50:20.746Z,94.32
2022-12-25T22:52:48.906Z,94.55
2022-12-25T22:55:19.175Z,94.46
2022-12-25T22:57:49.125Z,94.34
2022-12-25T23:00:17.480Z,94.03
2022-12-25T23:02:45.984Z,94.17
2022-12-25T23:05:14.479Z,94.32
2022-12-25T23:07:42.671Z,94.29
2022-12-25T23:10:10.902Z,94.33
2022-12-25T23:12:57.533Z,94.48
2022-12-25T23:15:27.775Z,94.32
2022-12-25T23:18:14.460Z,94.22
2022-12-25T23:21:01.175Z,94.32
2022-12-25T23:23:47.767Z,94.34
2022-12-25T23:26:18.436Z,94.23
2022-12-25T23:29:05.603Z,94.13
2022-12-25T23:31:39.894Z,93.97
2022-12-25T23:34:10.437Z,93.85
2022-12-25T23:36:38.569Z,93.72
2022-12-25T23:39:10.432Z,93.79
2022-12-25T23:41:40.531Z,93.83
2022-12-25T23:44:11.052Z,93.88
2022-12-25T23:46:40.371Z,94.11
2022-12-25T23:49:09.462Z,94.14
2022-12-25T23:51:39.859Z,94.23
2022-12-25T23:54:08.198Z,94.18
2022-12-25T23:56:36.878Z,94.15
2022-12-25T23:59:06.012Z,94.15
